Time,TemperatureF,DewpointF,PressureIn,WindDirection,WindDirectionDegrees,WindSpeedMPH,WindSpeedGustMPH,Humidity,HourlyPrecipIn,Conditions,Clouds,dailyrainin,SolarRadiationWatts/m^2,SoftwareType,DateUTC
2013-06-05 00:02:00,53.0,51.0,-100.00,ESE,114,7.0,13.0,94,0.00,,,0.04,0.000000,,2013-06-05 05:02:00,
2013-06-05 00:12:00,53.0,51.0,-100.00,ESE,114,7.0,13.0,94,0.00,,,0.04,0.000000,,2013-06-05 05:12:00,
2013-06-05 00:20:00,54.0,51.0,-100.00,ESE,123,7.0,13.0,91,0.00,,,0.04,0.000000,,2013-06-05 05:20:00,
2013-06-05 00:42:00,54.0,51.0,-100.00,ESE,123,7.0,13.0,91,0.00,,,0.04,0.000000,,2013-06-05 05:42:00,
2013-06-05 00:52:00,54.0,51.0,-100.00,ESE,123,7.0,13.0,91,0.00,,,0.04,0.000000,,2013-06-05 05:52:00,
2013-06-05 01:02:00,54.0,51.0,-100.00,ESE,123,7.0,13.0,91,0.00,,,0.04,0.000000,,2013-06-05 06:02:00,
2013-06-05 01:12:00,54.0,51.0,-100.00,ESE,123,7.0,13.0,91,0.00,,,0.04,0.000000,,2013-06-05 06:12:00,
2013-06-05 01:20:00,53.0,52.0,-100.00,ESE,122,7.0,14.0,95,0.01,,,0.05,0.000000,,2013-06-05 06:20:00,
2013-06-05 01:42:00,53.0,52.0,-100.00,ESE,122,7.0,14.0,95,0.01,,,0.05,0.000000,,2013-06-05 06:42:00,
2013-06-05 01:52:00,53.0,52.0,-100.00,ESE,122,7.0,14.0,95,0.01,,,0.05,0.000000,,2013-06-05 06:52:00,
2013-06-05 02:02:00,53.0,52.0,-100.00,ESE,122,7.0,14.0,95,0.01,,,0.05,0.000000,,2013-06-05 07:02:00,
2013-06-05 02:12:00,53.0,52.0,-100.00,ESE,122,7.0,14.0,95,0.01,,,0.05,0.000000,,2013-06-05 07:12:00,
2013-06-05 02:20:00,53.0,52.0,-100.00,SE,133,6.0,12.0,97,0.00,,,0.05,0.000000,,2013-06-05 07:20:00,
2013-06-05 02:42:00,53.0,52.0,-100.00,SE,133,6.0,12.0,97,0.00,,,0.05,0.000000,,2013-06-05 07:42:00,
2013-06-05 02:52:00,53.0,52.0,-100.00,SE,133,6.0,12.0,97,0.00,,,0.05,0.000000,,2013-06-05 07:52:00,
2013-06-05 03:02:00,53.0,52.0,-100.00,SE,133,6.0,12.0,97,0.00,,,0.05,0.000000,,2013-06-05 08:02:00,
2013-06-05 03:12:00,53.0,52.0,-100.00,SE,133,6.0,12.0,97,0.00,,,0.05,0.000000,,2013-06-05 08:12:00,
2013-06-05 03:20:00,53.0,52.0,-100.00,SSE,148,6.0,12.0,97,0.00,,,0.05,0.000000,,2013-06-05 08:20:00,
2013-06-05 03:42:00,53.0,52.0,-100.00,SSE,148,6.0,12.0,97,0.00,,,0.05,0.000000,,2013-06-05 08:42:00,
2013-06-05 03:52:00,53.0,52.0,-100.00,SSE,148,6.0,12.0,97,0.00,,,0.05,0.000000,,2013-06-05 08:52:00,
2013-06-05 04:02:00,53.0,52.0,-100.00,SSE,148,6.0,12.0,97,0.00,,,0.05,0.000000,,2013-06-05 09:02:00,
2013-06-05 04:12:00,53.0,52.0,-100.00,SSE,148,6.0,12.0,97,0.00,,,0.05,0.000000,,2013-06-05 09:12:00,
2013-06-05 04:20:00,53.0,52.0,-100.00,SSE,150,4.0,10.0,97,0.00,,,-99.99,0.000000,,2013-06-05 09:20:00,
2013-06-05 04:43:00,53.0,52.0,-100.00,SSE,150,4.0,10.0,97,0.00,,,-99.99,0.000000,,2013-06-05 09:43:00,
2013-06-05 04:53:00,53.0,52.0,-100.00,SSE,150,4.0,10.0,97,0.00,,,-99.99,0.000000,,2013-06-05 09:53:00,
2013-06-05 05:03:00,53.0,52.0,-100.00,SSE,150,4.0,10.0,97,0.00,,,-99.99,0.000000,,2013-06-05 10:03:00,
2013-06-05 05:12:00,53.0,52.0,-100.00,SSE,150,4.0,10.0,97,0.00,,,-99.99,0.000000,,2013-06-05 10:12:00,
2013-06-05 05:20:00,53.0,52.0,-100.00,ESE,108,3.0,8.0,96,0.00,,,0.05,0.000000,,2013-06-05 10:20:00,
2013-06-05 05:43:00,53.0,52.0,-100.00,ESE,108,3.0,8.0,96,0.00,,,0.05,0.000000,,2013-06-05 10:43:00,
2013-06-05 05:53:00,53.0,52.0,-100.00,ESE,108,3.0,8.0,96,0.00,,,0.05,0.000000,,2013-06-05 10:53:00,
2013-06-05 06:02:00,53.0,52.0,-100.00,ESE,108,3.0,8.0,96,0.00,,,0.05,0.000000,,2013-06-05 11:02:00,
2013-06-05 06:12:00,53.0,52.0,-100.00,ESE,108,3.0,8.0,96,0.00,,,0.05,0.000000,,2013-06-05 11:12:00,
2013-06-05 06:20:00,54.0,53.0,-100.00,ESE,120,5.0,8.0,97,0.01,,,0.06,3.000000,,2013-06-05 11:20:00,
2013-06-05 06:42:00,54.0,53.0,-100.00,ESE,120,5.0,8.0,97,0.01,,,0.06,3.000000,,2013-06-05 11:42:00,
2013-06-05 06:52:00,54.0,53.0,-100.00,ESE,120,5.0,8.0,97,0.01,,,0.06,3.000000,,2013-06-05 11:52:00,
2013-06-05 07:02:00,54.0,53.0,-100.00,ESE,120,5.0,8.0,97,0.01,,,0.06,3.000000,,2013-06-05 12:02:00,
2013-06-05 07:12:00,54.0,53.0,-100.00,ESE,120,5.0,8.0,97,0.01,,,0.06,3.000000,,2013-06-05 12:12:00,
2013-06-05 07:20:00,54.0,53.0,-100.00,ESE,104,3.0,8.0,98,0.00,,,0.06,13.000000,,2013-06-05 12:20:00,
2013-06-05 07:44:00,54.0,53.0,-100.00,ESE,104,3.0,8.0,98,0.00,,,0.06,13.000000,,2013-06-05 12:44:00,
2013-06-05 07:52:00,54.0,53.0,-100.00,ESE,104,3.0,8.0,98,0.00,,,0.06,13.000000,,2013-06-05 12:52:00,
2013-06-05 08:02:00,54.0,53.0,-100.00,ESE,104,3.0,8.0,98,0.00,,,0.06,13.000000,,2013-06-05 13:02:00,
2013-06-05 08:12:00,54.0,53.0,-100.00,ESE,104,3.0,8.0,98,0.00,,,0.06,13.000000,,2013-06-05 13:12:00,
2013-06-05 08:20:00,54.0,53.0,-100.00,East,93,3.0,6.0,98,0.00,,,0.06,32.000000,,2013-06-05 13:20:00,
2013-06-05 08:42:00,54.0,53.0,-100.00,East,93,3.0,6.0,98,0.00,,,0.06,32.000000,,2013-06-05 13:42:00,
2013-06-05 08:52:00,54.0,53.0,-100.00,East,93,3.0,6.0,98,0.00,,,0.06,32.000000,,2013-06-05 13:52:00,
2013-06-05 09:02:00,54.0,53.0,-100.00,East,93,3.0,6.0,98,0.00,,,0.06,32.000000,,2013-06-05 14:02:00,
2013-06-05 09:12:00,54.0,53.0,-100.00,East,93,3.0,6.0,98,0.00,,,0.06,32.000000,,2013-06-05 14:12:00,
2013-06-05 09:20:00,55.0,54.0,-100.00,ESE,115,6.0,9.0,97,0.00,,,0.06,97.000000,,2013-06-05 14:20:00,
2013-06-05 09:42:00,55.0,54.0,-100.00,ESE,115,6.0,9.0,97,0.00,,,0.06,97.000000,,2013-06-05 14:42:00,
2013-06-05 09:52:00,55.0,54.0,-100.00,ESE,115,6.0,9.0,97,0.00,,,0.06,97.000000,,2013-06-05 14:52:00,
2013-06-05 10:02:00,55.0,54.0,-100.00,ESE,115,6.0,9.0,97,0.00,,,0.06,97.000000,,2013-06-05 15:02:00,
2013-06-05 10:12:00,55.0,54.0,-100.00,ESE,115,6.0,9.0,97,0.00,,,0.06,97.000000,,2013-06-05 15:12:00,
2013-06-05 10:20:00,56.0,55.0,-100.00,ESE,118,6.0,12.0,95,0.00,,,0.06,125.000000,,2013-06-05 15:20:00,
2013-06-05 10:43:00,56.0,55.0,-100.00,ESE,118,6.0,12.0,95,0.00,,,0.06,125.000000,,2013-06-05 15:43:00,
2013-06-05 10:53:00,56.0,55.0,-100.00,ESE,118,6.0,12.0,95,0.00,,,0.06,125.000000,,2013-06-05 15:53:00,
2013-06-05 11:03:00,56.0,55.0,-100.00,ESE,118,6.0,12.0,95,0.00,,,0.06,125.000000,,2013-06-05 16:03:00,
2013-06-05 11:12:00,56.0,55.0,-100.00,ESE,118,6.0,12.0,95,0.00,,,0.06,125.000000,,2013-06-05 16:12:00,
2013-06-05 11:20:00,55.0,54.0,-100.00,East,97,7.0,12.0,95,0.00,,,0.05,136.000000,,2013-06-05 16:20:00,
2013-06-05 11:42:00,55.0,54.0,-100.00,East,97,7.0,12.0,95,0.00,,,0.05,136.000000,,2013-06-05 16:42:00,
2013-06-05 11:54:00,55.0,54.0,-100.00,East,97,7.0,12.0,95,0.00,,,0.05,136.000000,,2013-06-05 16:54:00,
2013-06-05 12:02:00,55.0,54.0,-100.00,East,97,7.0,12.0,95,0.00,,,0.05,136.000000,,2013-06-05 17:02:00,
2013-06-05 12:12:00,55.0,54.0,-100.00,East,97,7.0,12.0,95,0.00,,,0.05,136.000000,,2013-06-05 17:12:00,
2013-06-05 12:20:00,55.0,54.0,-100.00,East,98,5.0,9.0,96,0.01,,,0.06,78.000000,,2013-06-05 17:20:00,
2013-06-05 12:43:00,55.0,54.0,-100.00,East,98,5.0,9.0,96,0.01,,,0.06,78.000000,,2013-06-05 17:43:00,
2013-06-05 12:52:00,55.0,54.0,-100.00,East,98,5.0,9.0,96,0.01,,,0.06,78.000000,,2013-06-05 17:52:00,
2013-06-05 13:02:00,55.0,54.0,-100.00,East,98,5.0,9.0,96,0.01,,,0.06,78.000000,,2013-06-05 18:02:00,
2013-06-05 13:12:00,55.0,54.0,-100.00,East,98,5.0,9.0,96,0.01,,,0.06,78.000000,,2013-06-05 18:12:00,
2013-06-05 13:20:00,55.0,54.0,-100.00,ESE,110,6.0,9.0,95,0.00,,,0.06,66.000000,,2013-06-05 18:20:00,
2013-06-05 13:42:00,55.0,54.0,-100.00,ESE,110,6.0,9.0,95,0.00,,,0.06,66.000000,,2013-06-05 18:42:00,
2013-06-05 13:52:00,55.0,54.0,-100.00,ESE,110,6.0,9.0,95,0.00,,,0.06,66.000000,,2013-06-05 18:52:00,
2013-06-05 14:02:00,55.0,54.0,-100.00,ESE,110,6.0,9.0,95,0.00,,,0.06,66.000000,,2013-06-05 19:02:00,
2013-06-05 14:12:00,55.0,54.0,-100.00,ESE,110,6.0,9.0,95,0.00,,,0.06,66.000000,,2013-06-05 19:12:00,
2013-06-05 14:20:00,56.0,55.0,-100.00,ESE,106,3.0,8.0,97,0.00,,,0.05,74.000000,,2013-06-05 19:20:00,
2013-06-05 14:42:00,56.0,55.0,-100.00,ESE,106,3.0,8.0,97,0.00,,,0.05,74.000000,,2013-06-05 19:42:00,
2013-06-05 14:53:00,56.0,55.0,-100.00,ESE,106,3.0,8.0,97,0.00,,,0.05,74.000000,,2013-06-05 19:53:00,
2013-06-05 15:02:00,56.0,55.0,-100.00,ESE,106,3.0,8.0,97,0.00,,,0.05,74.000000,,2013-06-05 20:02:00,
2013-06-05 15:12:00,56.0,55.0,-100.00,ESE,106,3.0,8.0,97,0.00,,,0.05,74.000000,,2013-06-05 20:12:00,
2013-06-05 15:20:00,56.0,55.0,-100.00,NNE,24,3.0,8.0,97,0.00,,,0.05,68.000000,,2013-06-05 20:20:00,
2013-06-05 15:42:00,56.0,55.0,-100.00,NNE,24,3.0,8.0,97,0.00,,,0.05,68.000000,,2013-06-05 20:42:00,
2013-06-05 15:52:00,56.0,55.0,-100.00,NNE,24,3.0,8.0,97,0.00,,,0.05,68.000000,,2013-06-05 20:52:00,
2013-06-05 16:02:00,56.0,55.0,-100.00,NNE,24,3.0,8.0,97,0.00,,,0.05,68.000000,,2013-06-05 21:02:00,
2013-06-05 16:12:00,56.0,55.0,-100.00,NNE,24,3.0,8.0,97,0.00,,,0.05,68.000000,,2013-06-05 21:12:00,
2013-06-05 16:20:00,58.0,55.0,-100.00,NE,48,5.0,11.0,90,0.00,,,0.04,392.000000,,2013-06-05 21:20:00,
2013-06-05 16:43:00,58.0,55.0,-100.00,NE,48,5.0,11.0,90,0.00,,,0.04,392.000000,,2013-06-05 21:43:00,
2013-06-05 16:53:00,58.0,55.0,-100.00,NE,48,5.0,11.0,90,0.00,,,0.04,392.000000,,2013-06-05 21:53:00,
2013-06-05 17:02:00,58.0,55.0,-100.00,NE,48,5.0,11.0,90,0.00,,,0.04,392.000000,,2013-06-05 22:02:00,
2013-06-05 17:12:00,58.0,55.0,-100.00,NE,48,5.0,11.0,90,0.00,,,0.04,392.000000,,2013-06-05 22:12:00,
2013-06-05 17:20:00,59.0,54.0,-100.00,ENE,65,6.0,13.0,82,0.00,,,0.04,425.000000,,2013-06-05 22:20:00,
2013-06-05 17:43:00,59.0,54.0,-100.00,ENE,65,6.0,13.0,82,0.00,,,0.04,425.000000,,2013-06-05 22:43:00,
2013-06-05 17:53:00,59.0,54.0,-100.00,ENE,65,6.0,13.0,82,0.00,,,0.04,425.000000,,2013-06-05 22:53:00,
2013-06-05 18:02:00,59.0,54.0,-100.00,ENE,65,6.0,13.0,82,0.00,,,0.04,425.000000,,2013-06-05 23:02:00,
2013-06-05 18:12:00,59.0,54.0,-100.00,ENE,65,6.0,13.0,82,0.00,,,0.04,425.000000,,2013-06-05 23:12:00,
2013-06-05 18:20:00,60.0,54.0,-100.00,NE,47,7.0,11.0,81,0.01,,,0.05,377.000000,,2013-06-05 23:20:00,
2013-06-05 18:42:00,60.0,54.0,-100.00,NE,47,7.0,11.0,81,0.01,,,0.05,377.000000,,2013-06-05 23:42:00,
2013-06-05 18:53:00,60.0,54.0,-100.00,NE,47,7.0,11.0,81,0.01,,,0.05,377.000000,,2013-06-05 23:53:00,
2013-06-05 19:02:00,60.0,54.0,-100.00,NE,47,7.0,11.0,81,0.01,,,0.05,377.000000,,2013-06-06 00:02:00,
2013-06-05 19:12:00,60.0,54.0,-100.00,NE,47,7.0,11.0,81,0.01,,,0.05,377.000000,,2013-06-06 00:12:00,
2013-06-05 19:20:00,57.0,53.0,-100.00,NE,54,5.0,10.0,86,0.00,,,0.05,65.000000,,2013-06-06 00:20:00,
2013-06-05 19:43:00,57.0,53.0,-100.00,NE,54,5.0,10.0,86,0.00,,,0.05,65.000000,,2013-06-06 00:43:00,
2013-06-05 19:52:00,57.0,53.0,-100.00,NE,54,5.0,10.0,86,0.00,,,0.05,65.000000,,2013-06-06 00:52:00,
2013-06-05 20:02:00,57.0,53.0,-100.00,NE,54,5.0,10.0,86,0.00,,,0.05,65.000000,,2013-06-06 01:02:00,
2013-06-05 20:12:00,57.0,53.0,-100.00,NE,54,5.0,10.0,86,0.00,,,0.05,65.000000,,2013-06-06 01:12:00,
2013-06-05 20:20:00,54.0,52.0,-100.00,NE,36,7.0,12.0,92,0.00,,,0.04,21.000000,,2013-06-06 01:20:00,
2013-06-05 20:42:00,54.0,52.0,-100.00,NE,36,7.0,12.0,92,0.00,,,0.04,21.000000,,2013-06-06 01:42:00,
2013-06-05 20:53:00,54.0,52.0,-100.00,NE,36,7.0,12.0,92,0.00,,,0.04,21.000000,,2013-06-06 01:53:00,
2013-06-05 21:02:00,54.0,52.0,-100.00,NE,36,7.0,12.0,92,0.00,,,0.04,21.000000,,2013-06-06 02:02:00,
2013-06-05 21:12:00,54.0,52.0,-100.00,NE,36,7.0,12.0,92,0.00,,,0.04,21.000000,,2013-06-06 02:12:00,
2013-06-05 21:20:00,51.0,49.0,-100.00,NNE,31,6.0,11.0,94,0.00,,,0.04,2.000000,,2013-06-06 02:20:00,
2013-06-05 22:02:00,51.0,49.0,-100.00,NNE,31,6.0,11.0,94,0.00,,,0.04,2.000000,,2013-06-06 03:02:00,
2013-06-05 22:12:00,51.0,49.0,-100.00,NNE,31,6.0,11.0,94,0.00,,,0.04,2.000000,,2013-06-06 03:12:00,
2013-06-05 22:20:00,50.0,49.0,-100.00,NE,42,5.0,13.0,96,0.00,,,0.04,0.000000,,2013-06-06 03:20:00,
2013-06-05 22:43:00,50.0,49.0,-100.00,NE,42,5.0,13.0,96,0.00,,,0.04,0.000000,,2013-06-06 03:43:00,
2013-06-05 22:53:00,50.0,49.0,-100.00,NE,42,5.0,13.0,96,0.00,,,0.04,0.000000,,2013-06-06 03:53:00,
2013-06-05 23:03:00,50.0,49.0,-100.00,NE,42,5.0,13.0,96,0.00,,,0.04,0.000000,,2013-06-06 04:03:00,
2013-06-05 23:13:00,50.0,49.0,-100.00,NE,42,5.0,13.0,96,0.00,,,0.04,0.000000,,2013-06-06 04:13:00,
2013-06-05 23:20:00,49.0,48.0,-100.00,NNE,27,4.0,10.0,98,0.00,,,0.04,0.000000,,2013-06-06 04:20:00,
2013-06-05 23:42:00,49.0,48.0,-100.00,NNE,27,4.0,10.0,98,0.00,,,0.04,0.000000,,2013-06-06 04:42:00,
2013-06-05 23:53:00,49.0,48.0,-100.00,NNE,27,4.0,10.0,98,0.00,,,0.04,0.000000,,2013-06-06 04:53:00,